sensor_id;sensor_type;location;lat;lon;timestamp;P1;durP1;ratioP1;P2;durP2;ratioP2
58760;SDS011;44529;47.464;19.014;2023-01-29T00:02:40;42.85;;;22.73;;
58760;SDS011;44529;47.464;19.014;2023-01-29T00:05:43;36.97;;;21.85;;
58760;SDS011;44529;47.464;19.014;2023-01-29T00:08:46;34.58;;;22.13;;
58760;SDS011;44529;47.464;19.014;2023-01-29T00:11:49;38.90;;;21.95;;
58760;SDS011;44529;47.464;19.014;2023-01-29T00:14:52;36.92;;;22.33;;
58760;SDS011;44529;47.464;19.014;2023-01-29T00:17:56;35.03;;;22.30;;
58760;SDS011;44529;47.464;19.014;2023-01-29T00:20:59;38.22;;;22.48;;
58760;SDS011;44529;47.464;19.014;2023-01-29T00:24:02;37.10;;;22.02;;
58760;SDS011;44529;47.464;19.014;2023-01-29T00:27:05;37.45;;;22.35;;
58760;SDS011;44529;47.464;19.014;2023-01-29T00:30:08;37.28;;;22.77;;
58760;SDS011;44529;47.464;19.014;2023-01-29T00:33:13;37.00;;;21.60;;
58760;SDS011;44529;47.464;19.014;2023-01-29T00:36:17;35.95;;;22.13;;
58760;SDS011;44529;47.464;19.014;2023-01-29T00:39:20;38.85;;;22.80;;
58760;SDS011;44529;47.464;19.014;2023-01-29T00:42:37;35.13;;;22.33;;
58760;SDS011;44529;47.464;19.014;2023-01-29T00:49:02;40.17;;;23.05;;
58760;SDS011;44529;47.464;19.014;2023-01-29T00:52:05;40.10;;;23.52;;
58760;SDS011;44529;47.464;19.014;2023-01-29T00:55:26;38.35;;;23.50;;
58760;SDS011;44529;47.464;19.014;2023-01-29T00:58:29;37.85;;;22.37;;
58760;SDS011;44529;47.464;19.014;2023-01-29T01:01:35;41.10;;;22.80;;
58760;SDS011;44529;47.464;19.014;2023-01-29T01:04:56;40.03;;;22.60;;
58760;SDS011;44529;47.464;19.014;2023-01-29T01:07:59;37.05;;;22.70;;
58760;SDS011;44529;47.464;19.014;2023-01-29T01:11:03;34.28;;;21.75;;
58760;SDS011;44529;47.464;19.014;2023-01-29T01:14:07;36.22;;;21.70;;
58760;SDS011;44529;47.464;19.014;2023-01-29T01:17:10;36.47;;;22.02;;
58760;SDS011;44529;47.464;19.014;2023-01-29T01:20:13;37.10;;;21.65;;
58760;SDS011;44529;47.464;19.014;2023-01-29T01:23:17;36.40;;;21.70;;
58760;SDS011;44529;47.464;19.014;2023-01-29T01:26:21;36.40;;;22.23;;
58760;SDS011;44529;47.464;19.014;2023-01-29T01:29:23;35.45;;;22.35;;
58760;SDS011;44529;47.464;19.014;2023-01-29T01:32:26;38.78;;;22.70;;
58760;SDS011;44529;47.464;19.014;2023-01-29T01:35:29;38.97;;;22.08;;
58760;SDS011;44529;47.464;19.014;2023-01-29T01:38:32;35.78;;;23.00;;
58760;SDS011;44529;47.464;19.014;2023-01-29T01:41:35;39.17;;;23.08;;
58760;SDS011;44529;47.464;19.014;2023-01-29T01:44:50;38.53;;;22.98;;
58760;SDS011;44529;47.464;19.014;2023-01-29T01:51:17;39.10;;;23.45;;
58760;SDS011;44529;47.464;19.014;2023-01-29T01:54:24;37.92;;;23.20;;
58760;SDS011;44529;47.464;19.014;2023-01-29T01:57:31;39.80;;;22.87;;
58760;SDS011;44529;47.464;19.014;2023-01-29T02:00:35;37.88;;;22.35;;
58760;SDS011;44529;47.464;19.014;2023-01-29T02:03:44;38.95;;;22.87;;
58760;SDS011;44529;47.464;19.014;2023-01-29T02:07:14;37.13;;;22.08;;
58760;SDS011;44529;47.464;19.014;2023-01-29T02:10:39;36.20;;;21.50;;
58760;SDS011;44529;47.464;19.014;2023-01-29T02:13:44;39.08;;;21.83;;
58760;SDS011;44529;47.464;19.014;2023-01-29T02:16:59;41.50;;;23.77;;
58760;SDS011;44529;47.464;19.014;2023-01-29T02:20:20;40.55;;;23.77;;
58760;SDS011;44529;47.464;19.014;2023-01-29T02:26:58;35.35;;;22.75;;
58760;SDS011;44529;47.464;19.014;2023-01-29T02:30:27;39.22;;;23.42;;
58760;SDS011;44529;47.464;19.014;2023-01-29T02:33:43;36.67;;;22.40;;
58760;SDS011;44529;47.464;19.014;2023-01-29T02:40:29;40.10;;;23.92;;
58760;SDS011;44529;47.464;19.014;2023-01-29T03:03:16;37.97;;;22.62;;
58760;SDS011;44529;47.464;19.014;2023-01-29T03:06:31;41.13;;;24.23;;
58760;SDS011;44529;47.464;19.014;2023-01-29T03:09:40;39.75;;;24.25;;
58760;SDS011;44529;47.464;19.014;2023-01-29T03:12:52;40.58;;;24.37;;
58760;SDS011;44529;47.464;19.014;2023-01-29T03:16:01;39.25;;;22.67;;
58760;SDS011;44529;47.464;19.014;2023-01-29T03:22:27;40.75;;;24.15;;
58760;SDS011;44529;47.464;19.014;2023-01-29T03:25:33;39.75;;;23.00;;
58760;SDS011;44529;47.464;19.014;2023-01-29T03:29:02;37.03;;;22.30;;
58760;SDS011;44529;47.464;19.014;2023-01-29T03:32:27;36.78;;;22.35;;
58760;SDS011;44529;47.464;19.014;2023-01-29T03:35:33;39.00;;;22.83;;
58760;SDS011;44529;47.464;19.014;2023-01-29T03:38:41;38.03;;;23.35;;
58760;SDS011;44529;47.464;19.014;2023-01-29T03:45:13;37.25;;;22.65;;
58760;SDS011;44529;47.464;19.014;2023-01-29T03:48:27;38.38;;;22.27;;
58760;SDS011;44529;47.464;19.014;2023-01-29T03:51:51;34.00;;;20.90;;
58760;SDS011;44529;47.464;19.014;2023-01-29T03:55:16;38.65;;;21.98;;
58760;SDS011;44529;47.464;19.014;2023-01-29T03:58:39;35.30;;;22.25;;
58760;SDS011;44529;47.464;19.014;2023-01-29T04:01:51;34.38;;;21.42;;
58760;SDS011;44529;47.464;19.014;2023-01-29T04:05:03;36.25;;;21.62;;
58760;SDS011;44529;47.464;19.014;2023-01-29T04:08:14;34.97;;;22.42;;
58760;SDS011;44529;47.464;19.014;2023-01-29T04:11:24;32.67;;;20.37;;
58760;SDS011;44529;47.464;19.014;2023-01-29T04:14:29;34.92;;;20.08;;
58760;SDS011;44529;47.464;19.014;2023-01-29T04:17:36;34.95;;;22.37;;
58760;SDS011;44529;47.464;19.014;2023-01-29T04:20:43;36.35;;;21.27;;
58760;SDS011;44529;47.464;19.014;2023-01-29T04:23:48;37.00;;;22.05;;
58760;SDS011;44529;47.464;19.014;2023-01-29T04:30:13;35.13;;;20.73;;
58760;SDS011;44529;47.464;19.014;2023-01-29T04:33:50;36.88;;;21.00;;
58760;SDS011;44529;47.464;19.014;2023-01-29T04:37:17;33.22;;;20.12;;
58760;SDS011;44529;47.464;19.014;2023-01-29T04:40:42;38.75;;;21.30;;
58760;SDS011;44529;47.464;19.014;2023-01-29T04:50:48;32.55;;;19.25;;
58760;SDS011;44529;47.464;19.014;2023-01-29T04:53:57;33.15;;;20.45;;
58760;SDS011;44529;47.464;19.014;2023-01-29T04:57:23;37.17;;;21.60;;
58760;SDS011;44529;47.464;19.014;2023-01-29T05:00:30;33.53;;;21.02;;
58760;SDS011;44529;47.464;19.014;2023-01-29T05:03:37;36.05;;;20.92;;
58760;SDS011;44529;47.464;19.014;2023-01-29T05:06:43;34.80;;;20.37;;
58760;SDS011;44529;47.464;19.014;2023-01-29T05:09:48;31.42;;;18.98;;
58760;SDS011;44529;47.464;19.014;2023-01-29T05:12:54;29.85;;;18.90;;
58760;SDS011;44529;47.464;19.014;2023-01-29T05:16:03;27.80;;;16.73;;
58760;SDS011;44529;47.464;19.014;2023-01-29T05:19:11;25.90;;;16.17;;
58760;SDS011;44529;47.464;19.014;2023-01-29T05:22:16;26.80;;;16.17;;
58760;SDS011;44529;47.464;19.014;2023-01-29T05:25:27;28.80;;;17.55;;
58760;SDS011;44529;47.464;19.014;2023-01-29T05:28:32;29.40;;;17.95;;
58760;SDS011;44529;47.464;19.014;2023-01-29T05:31:37;26.73;;;15.65;;
58760;SDS011;44529;47.464;19.014;2023-01-29T05:34:40;23.85;;;14.77;;
58760;SDS011;44529;47.464;19.014;2023-01-29T05:37:43;26.02;;;15.52;;
58760;SDS011;44529;47.464;19.014;2023-01-29T05:40:45;26.77;;;15.80;;
58760;SDS011;44529;47.464;19.014;2023-01-29T05:43:48;28.08;;;15.45;;
58760;SDS011;44529;47.464;19.014;2023-01-29T05:46:51;23.17;;;14.98;;
58760;SDS011;44529;47.464;19.014;2023-01-29T05:49:53;27.48;;;15.20;;
58760;SDS011;44529;47.464;19.014;2023-01-29T05:53:00;25.35;;;15.18;;
58760;SDS011;44529;47.464;19.014;2023-01-29T05:56:03;27.02;;;14.70;;
58760;SDS011;44529;47.464;19.014;2023-01-29T05:59:06;24.10;;;14.40;;
58760;SDS011;44529;47.464;19.014;2023-01-29T06:02:08;25.08;;;14.25;;
58760;SDS011;44529;47.464;19.014;2023-01-29T06:05:11;25.25;;;14.50;;
58760;SDS011;44529;47.464;19.014;2023-01-29T06:08:17;20.88;;;13.82;;
58760;SDS011;44529;47.464;19.014;2023-01-29T06:11:20;25.23;;;14.60;;
58760;SDS011;44529;47.464;19.014;2023-01-29T06:14:23;23.52;;;14.35;;
58760;SDS011;44529;47.464;19.014;2023-01-29T06:17:26;23.70;;;14.73;;
58760;SDS011;44529;47.464;19.014;2023-01-29T06:20:28;25.58;;;14.80;;
58760;SDS011;44529;47.464;19.014;2023-01-29T06:23:31;25.33;;;15.35;;
58760;SDS011;44529;47.464;19.014;2023-01-29T06:26:34;23.58;;;14.02;;
58760;SDS011;44529;47.464;19.014;2023-01-29T06:29:37;21.75;;;13.93;;
58760;SDS011;44529;47.464;19.014;2023-01-29T06:32:39;25.12;;;14.18;;
58760;SDS011;44529;47.464;19.014;2023-01-29T06:35:42;24.90;;;14.48;;
58760;SDS011;44529;47.464;19.014;2023-01-29T06:38:45;20.95;;;13.52;;
58760;SDS011;44529;47.464;19.014;2023-01-29T06:41:51;26.05;;;14.05;;
58760;SDS011;44529;47.464;19.014;2023-01-29T06:44:56;23.87;;;14.70;;
58760;SDS011;44529;47.464;19.014;2023-01-29T06:47:59;23.48;;;14.82;;
58760;SDS011;44529;47.464;19.014;2023-01-29T06:51:03;21.70;;;14.13;;
58760;SDS011;44529;47.464;19.014;2023-01-29T06:54:15;18.50;;;13.18;;
58760;SDS011;44529;47.464;19.014;2023-01-29T06:57:17;21.60;;;14.10;;
58760;SDS011;44529;47.464;19.014;2023-01-29T07:00:20;21.92;;;13.45;;
58760;SDS011;44529;47.464;19.014;2023-01-29T07:03:22;21.73;;;14.00;;
58760;SDS011;44529;47.464;19.014;2023-01-29T07:06:26;22.02;;;14.13;;
58760;SDS011;44529;47.464;19.014;2023-01-29T07:09:29;20.85;;;13.70;;
58760;SDS011;44529;47.464;19.014;2023-01-29T07:12:34;17.48;;;12.65;;
58760;SDS011;44529;47.464;19.014;2023-01-29T07:15:36;19.67;;;12.60;;
58760;SDS011;44529;47.464;19.014;2023-01-29T07:18:39;18.87;;;12.73;;
58760;SDS011;44529;47.464;19.014;2023-01-29T07:21:42;18.98;;;12.50;;
58760;SDS011;44529;47.464;19.014;2023-01-29T07:24:47;19.12;;;13.68;;
58760;SDS011;44529;47.464;19.014;2023-01-29T07:27:50;17.62;;;12.45;;
58760;SDS011;44529;47.464;19.014;2023-01-29T07:30:55;20.25;;;13.20;;
58760;SDS011;44529;47.464;19.014;2023-01-29T07:33:58;18.17;;;11.93;;
58760;SDS011;44529;47.464;19.014;2023-01-29T07:37:01;19.73;;;13.32;;
58760;SDS011;44529;47.464;19.014;2023-01-29T07:40:04;20.67;;;12.73;;
58760;SDS011;44529;47.464;19.014;2023-01-29T07:43:16;19.15;;;12.73;;
58760;SDS011;44529;47.464;19.014;2023-01-29T07:46:18;21.17;;;14.15;;
58760;SDS011;44529;47.464;19.014;2023-01-29T07:49:21;18.73;;;13.10;;
58760;SDS011;44529;47.464;19.014;2023-01-29T07:52:28;20.37;;;12.82;;
58760;SDS011;44529;47.464;19.014;2023-01-29T07:55:32;20.12;;;13.68;;
58760;SDS011;44529;47.464;19.014;2023-01-29T07:58:35;18.55;;;12.37;;
58760;SDS011;44529;47.464;19.014;2023-01-29T08:01:38;20.00;;;13.18;;
58760;SDS011;44529;47.464;19.014;2023-01-29T08:04:41;19.85;;;13.27;;
58760;SDS011;44529;47.464;19.014;2023-01-29T08:07:43;21.95;;;13.50;;
58760;SDS011;44529;47.464;19.014;2023-01-29T08:10:55;18.55;;;12.15;;
58760;SDS011;44529;47.464;19.014;2023-01-29T08:13:58;16.58;;;11.05;;
58760;SDS011;44529;47.464;19.014;2023-01-29T08:17:00;17.52;;;11.93;;
58760;SDS011;44529;47.464;19.014;2023-01-29T08:20:03;19.80;;;11.48;;
58760;SDS011;44529;47.464;19.014;2023-01-29T08:23:12;19.05;;;12.43;;
58760;SDS011;44529;47.464;19.014;2023-01-29T08:26:16;16.77;;;11.50;;
58760;SDS011;44529;47.464;19.014;2023-01-29T08:29:19;17.80;;;11.73;;
58760;SDS011;44529;47.464;19.014;2023-01-29T08:32:21;16.10;;;11.10;;
58760;SDS011;44529;47.464;19.014;2023-01-29T08:35:24;16.00;;;11.00;;
58760;SDS011;44529;47.464;19.014;2023-01-29T08:38:27;17.62;;;11.15;;
58760;SDS011;44529;47.464;19.014;2023-01-29T08:41:31;16.77;;;10.77;;
58760;SDS011;44529;47.464;19.014;2023-01-29T08:44:33;17.30;;;11.20;;
58760;SDS011;44529;47.464;19.014;2023-01-29T08:47:36;16.62;;;11.07;;
58760;SDS011;44529;47.464;19.014;2023-01-29T08:50:38;16.83;;;11.68;;
58760;SDS011;44529;47.464;19.014;2023-01-29T08:53:41;18.77;;;11.65;;
58760;SDS011;44529;47.464;19.014;2023-01-29T08:56:44;18.58;;;11.55;;
58760;SDS011;44529;47.464;19.014;2023-01-29T08:59:47;15.43;;;10.00;;
58760;SDS011;44529;47.464;19.014;2023-01-29T09:02:49;15.40;;;10.27;;
58760;SDS011;44529;47.464;19.014;2023-01-29T09:05:53;14.18;;;9.75;;
58760;SDS011;44529;47.464;19.014;2023-01-29T09:08:55;14.95;;;10.15;;
58760;SDS011;44529;47.464;19.014;2023-01-29T09:11:58;14.98;;;9.80;;
58760;SDS011;44529;47.464;19.014;2023-01-29T09:15:01;13.85;;;10.57;;
58760;SDS011;44529;47.464;19.014;2023-01-29T09:18:04;16.00;;;10.27;;
58760;SDS011;44529;47.464;19.014;2023-01-29T09:21:07;13.10;;;9.90;;
58760;SDS011;44529;47.464;19.014;2023-01-29T09:24:10;14.57;;;9.80;;
58760;SDS011;44529;47.464;19.014;2023-01-29T09:27:12;14.52;;;10.38;;
58760;SDS011;44529;47.464;19.014;2023-01-29T09:30:15;13.55;;;10.00;;
58760;SDS011;44529;47.464;19.014;2023-01-29T09:33:18;15.80;;;10.20;;
58760;SDS011;44529;47.464;19.014;2023-01-29T09:36:23;18.80;;;9.20;;
58760;SDS011;44529;47.464;19.014;2023-01-29T09:39:28;13.52;;;9.32;;
58760;SDS011;44529;47.464;19.014;2023-01-29T09:42:42;14.98;;;9.98;;
58760;SDS011;44529;47.464;19.014;2023-01-29T09:46:38;15.57;;;10.10;;
58760;SDS011;44529;47.464;19.014;2023-01-29T09:49:25;13.13;;;9.85;;
58760;SDS011;44529;47.464;19.014;2023-01-29T09:52:32;15.40;;;9.80;;
58760;SDS011;44529;47.464;19.014;2023-01-29T09:55:42;14.23;;;9.00;;
58760;SDS011;44529;47.464;19.014;2023-01-29T09:58:50;14.05;;;9.00;;
58760;SDS011;44529;47.464;19.014;2023-01-29T10:02:08;11.43;;;8.35;;
58760;SDS011;44529;47.464;19.014;2023-01-29T10:06:35;13.93;;;8.97;;
58760;SDS011;44529;47.464;19.014;2023-01-29T10:19:52;10.35;;;7.72;;
58760;SDS011;44529;47.464;19.014;2023-01-29T10:23:20;12.37;;;9.05;;
58760;SDS011;44529;47.464;19.014;2023-01-29T10:26:27;12.45;;;8.57;;
58760;SDS011;44529;47.464;19.014;2023-01-29T10:29:31;10.93;;;7.65;;
58760;SDS011;44529;47.464;19.014;2023-01-29T10:32:36;11.82;;;7.95;;
58760;SDS011;44529;47.464;19.014;2023-01-29T10:35:42;12.75;;;8.05;;
58760;SDS011;44529;47.464;19.014;2023-01-29T10:38:48;13.48;;;8.40;;
58760;SDS011;44529;47.464;19.014;2023-01-29T10:45:28;12.00;;;8.52;;
58760;SDS011;44529;47.464;19.014;2023-01-29T10:48:59;11.90;;;7.70;;
58760;SDS011;44529;47.464;19.014;2023-01-29T11:02:54;10.82;;;7.28;;
58760;SDS011;44529;47.464;19.014;2023-01-29T11:12:34;12.02;;;8.20;;
58760;SDS011;44529;47.464;19.014;2023-01-29T11:15:39;13.35;;;8.85;;
58760;SDS011;44529;47.464;19.014;2023-01-29T11:18:50;11.55;;;8.00;;
58760;SDS011;44529;47.464;19.014;2023-01-29T11:21:58;11.88;;;8.77;;
58760;SDS011;44529;47.464;19.014;2023-01-29T11:25:15;11.88;;;8.25;;
58760;SDS011;44529;47.464;19.014;2023-01-29T11:31:42;11.98;;;8.27;;
58760;SDS011;44529;47.464;19.014;2023-01-29T11:35:03;12.95;;;8.40;;
58760;SDS011;44529;47.464;19.014;2023-01-29T11:38:25;13.77;;;8.32;;
58760;SDS011;44529;47.464;19.014;2023-01-29T11:41:29;12.68;;;8.23;;
58760;SDS011;44529;47.464;19.014;2023-01-29T11:44:43;12.18;;;8.13;;
58760;SDS011;44529;47.464;19.014;2023-01-29T11:47:49;12.32;;;8.23;;
58760;SDS011;44529;47.464;19.014;2023-01-29T11:50:56;11.45;;;7.93;;
58760;SDS011;44529;47.464;19.014;2023-01-29T11:54:09;11.50;;;8.13;;
58760;SDS011;44529;47.464;19.014;2023-01-29T11:57:24;10.60;;;7.60;;
58760;SDS011;44529;47.464;19.014;2023-01-29T12:00:30;10.32;;;7.25;;
58760;SDS011;44529;47.464;19.014;2023-01-29T12:03:41;12.02;;;7.62;;
58760;SDS011;44529;47.464;19.014;2023-01-29T12:06:47;11.95;;;7.18;;
58760;SDS011;44529;47.464;19.014;2023-01-29T12:09:54;10.77;;;7.65;;
58760;SDS011;44529;47.464;19.014;2023-01-29T12:13:03;12.52;;;8.23;;
58760;SDS011;44529;47.464;19.014;2023-01-29T12:20:03;12.05;;;8.02;;
58760;SDS011;44529;47.464;19.014;2023-01-29T12:26:49;10.50;;;7.53;;
58760;SDS011;44529;47.464;19.014;2023-01-29T12:33:20;8.25;;;6.85;;
58760;SDS011;44529;47.464;19.014;2023-01-29T12:39:54;10.63;;;7.25;;
58760;SDS011;44529;47.464;19.014;2023-01-29T12:42:58;11.23;;;7.72;;
58760;SDS011;44529;47.464;19.014;2023-01-29T12:46:07;10.07;;;6.87;;
58760;SDS011;44529;47.464;19.014;2023-01-29T12:49:32;7.15;;;6.05;;
58760;SDS011;44529;47.464;19.014;2023-01-29T12:52:45;10.35;;;6.78;;
58760;SDS011;44529;47.464;19.014;2023-01-29T12:56:01;9.75;;;6.53;;
58760;SDS011;44529;47.464;19.014;2023-01-29T12:59:16;8.73;;;6.87;;
58760;SDS011;44529;47.464;19.014;2023-01-29T13:09:16;9.73;;;6.65;;
58760;SDS011;44529;47.464;19.014;2023-01-29T13:12:22;9.35;;;6.90;;
58760;SDS011;44529;47.464;19.014;2023-01-29T13:15:33;8.32;;;6.53;;
58760;SDS011;44529;47.464;19.014;2023-01-29T13:21:47;8.50;;;7.20;;
58760;SDS011;44529;47.464;19.014;2023-01-29T13:24:55;8.77;;;6.75;;
58760;SDS011;44529;47.464;19.014;2023-01-29T13:28:14;9.07;;;6.78;;
58760;SDS011;44529;47.464;19.014;2023-01-29T13:31:29;10.05;;;7.05;;
58760;SDS011;44529;47.464;19.014;2023-01-29T13:34:37;7.97;;;6.68;;
58760;SDS011;44529;47.464;19.014;2023-01-29T13:37:47;9.98;;;6.80;;
58760;SDS011;44529;47.464;19.014;2023-01-29T13:40:56;10.50;;;6.85;;
58760;SDS011;44529;47.464;19.014;2023-01-29T13:44:04;8.20;;;6.40;;
58760;SDS011;44529;47.464;19.014;2023-01-29T13:47:10;7.78;;;6.47;;
58760;SDS011;44529;47.464;19.014;2023-01-29T13:50:36;9.80;;;6.87;;
58760;SDS011;44529;47.464;19.014;2023-01-29T13:53:42;8.88;;;7.15;;
58760;SDS011;44529;47.464;19.014;2023-01-29T13:59:56;8.15;;;6.57;;
58760;SDS011;44529;47.464;19.014;2023-01-29T14:06:02;8.63;;;7.28;;
58760;SDS011;44529;47.464;19.014;2023-01-29T14:09:28;9.95;;;7.12;;
58760;SDS011;44529;47.464;19.014;2023-01-29T14:12:40;8.75;;;6.80;;
58760;SDS011;44529;47.464;19.014;2023-01-29T14:15:45;9.13;;;6.95;;
58760;SDS011;44529;47.464;19.014;2023-01-29T14:19:15;9.48;;;7.35;;
58760;SDS011;44529;47.464;19.014;2023-01-29T14:22:23;8.32;;;7.10;;
58760;SDS011;44529;47.464;19.014;2023-01-29T14:25:30;9.07;;;7.30;;
58760;SDS011;44529;47.464;19.014;2023-01-29T14:28:35;9.95;;;7.82;;
58760;SDS011;44529;47.464;19.014;2023-01-29T14:31:40;11.35;;;7.47;;
58760;SDS011;44529;47.464;19.014;2023-01-29T14:34:46;9.48;;;7.57;;
58760;SDS011;44529;47.464;19.014;2023-01-29T14:37:53;11.80;;;8.25;;
58760;SDS011;44529;47.464;19.014;2023-01-29T14:41:01;8.52;;;7.12;;
58760;SDS011;44529;47.464;19.014;2023-01-29T14:50:49;9.63;;;8.13;;
58760;SDS011;44529;47.464;19.014;2023-01-29T14:54:01;12.23;;;8.43;;
58760;SDS011;44529;47.464;19.014;2023-01-29T14:57:14;10.07;;;8.07;;
58760;SDS011;44529;47.464;19.014;2023-01-29T15:00:21;10.00;;;7.90;;
58760;SDS011;44529;47.464;19.014;2023-01-29T15:03:36;12.43;;;8.40;;
58760;SDS011;44529;47.464;19.014;2023-01-29T15:13:26;10.90;;;8.50;;
58760;SDS011;44529;47.464;19.014;2023-01-29T15:16:42;12.20;;;8.80;;
58760;SDS011;44529;47.464;19.014;2023-01-29T15:19:54;10.55;;;8.38;;
58760;SDS011;44529;47.464;19.014;2023-01-29T15:22:58;11.07;;;8.98;;
58760;SDS011;44529;47.464;19.014;2023-01-29T15:26:02;13.05;;;9.85;;
58760;SDS011;44529;47.464;19.014;2023-01-29T15:29:18;12.55;;;10.15;;
58760;SDS011;44529;47.464;19.014;2023-01-29T15:32:26;12.55;;;10.10;;
58760;SDS011;44529;47.464;19.014;2023-01-29T15:35:36;12.82;;;10.10;;
58760;SDS011;44529;47.464;19.014;2023-01-29T15:38:42;11.50;;;10.00;;
58760;SDS011;44529;47.464;19.014;2023-01-29T15:41:45;14.13;;;11.05;;
58760;SDS011;44529;47.464;19.014;2023-01-29T15:44:48;12.95;;;10.20;;
58760;SDS011;44529;47.464;19.014;2023-01-29T15:47:51;16.48;;;10.68;;
58760;SDS011;44529;47.464;19.014;2023-01-29T15:50:56;12.52;;;10.15;;
58760;SDS011;44529;47.464;19.014;2023-01-29T15:57:12;14.07;;;11.32;;
58760;SDS011;44529;47.464;19.014;2023-01-29T16:00:23;12.82;;;11.02;;
58760;SDS011;44529;47.464;19.014;2023-01-29T16:03:29;13.75;;;10.98;;
58760;SDS011;44529;47.464;19.014;2023-01-29T16:06:35;13.57;;;10.95;;
58760;SDS011;44529;47.464;19.014;2023-01-29T16:09:40;13.32;;;11.25;;
58760;SDS011;44529;47.464;19.014;2023-01-29T16:12:44;13.62;;;11.32;;
58760;SDS011;44529;47.464;19.014;2023-01-29T16:16:02;15.02;;;11.57;;
58760;SDS011;44529;47.464;19.014;2023-01-29T16:19:12;15.70;;;11.68;;
58760;SDS011;44529;47.464;19.014;2023-01-29T16:22:22;15.82;;;11.93;;
58760;SDS011;44529;47.464;19.014;2023-01-29T16:25:26;16.65;;;12.32;;
58760;SDS011;44529;47.464;19.014;2023-01-29T16:28:32;13.00;;;11.27;;
58760;SDS011;44529;47.464;19.014;2023-01-29T16:31:40;13.38;;;10.95;;
58760;SDS011;44529;47.464;19.014;2023-01-29T16:34:46;16.02;;;12.13;;
58760;SDS011;44529;47.464;19.014;2023-01-29T16:37:50;14.48;;;11.38;;
58760;SDS011;44529;47.464;19.014;2023-01-29T16:41:03;14.77;;;12.25;;
58760;SDS011;44529;47.464;19.014;2023-01-29T16:47:25;13.77;;;11.20;;
58760;SDS011;44529;47.464;19.014;2023-01-29T16:50:37;16.00;;;12.10;;
58760;SDS011;44529;47.464;19.014;2023-01-29T16:57:12;17.20;;;12.32;;
58760;SDS011;44529;47.464;19.014;2023-01-29T17:00:24;14.75;;;11.95;;
58760;SDS011;44529;47.464;19.014;2023-01-29T17:03:29;18.48;;;12.60;;
58760;SDS011;44529;47.464;19.014;2023-01-29T17:06:40;16.05;;;12.57;;
58760;SDS011;44529;47.464;19.014;2023-01-29T17:09:47;18.58;;;12.60;;
58760;SDS011;44529;47.464;19.014;2023-01-29T17:13:07;15.33;;;11.53;;
58760;SDS011;44529;47.464;19.014;2023-01-29T17:16:27;15.88;;;12.68;;
58760;SDS011;44529;47.464;19.014;2023-01-29T17:19:36;17.55;;;12.93;;
58760;SDS011;44529;47.464;19.014;2023-01-29T17:22:39;16.27;;;13.45;;
58760;SDS011;44529;47.464;19.014;2023-01-29T17:25:47;18.83;;;13.85;;
58760;SDS011;44529;47.464;19.014;2023-01-29T17:28:54;14.70;;;12.45;;
58760;SDS011;44529;47.464;19.014;2023-01-29T17:31:58;13.85;;;12.35;;
58760;SDS011;44529;47.464;19.014;2023-01-29T17:35:01;19.02;;;13.95;;
58760;SDS011;44529;47.464;19.014;2023-01-29T17:38:04;16.25;;;13.30;;
58760;SDS011;44529;47.464;19.014;2023-01-29T17:41:22;14.90;;;12.13;;
58760;SDS011;44529;47.464;19.014;2023-01-29T17:44:28;17.02;;;13.07;;
58760;SDS011;44529;47.464;19.014;2023-01-29T17:47:30;17.75;;;14.07;;
58760;SDS011;44529;47.464;19.014;2023-01-29T17:50:34;16.50;;;13.73;;
58760;SDS011;44529;47.464;19.014;2023-01-29T17:53:40;16.73;;;13.48;;
58760;SDS011;44529;47.464;19.014;2023-01-29T17:56:49;15.40;;;12.98;;
58760;SDS011;44529;47.464;19.014;2023-01-29T17:59:55;15.32;;;13.35;;
58760;SDS011;44529;47.464;19.014;2023-01-29T18:02:57;17.25;;;13.35;;
58760;SDS011;44529;47.464;19.014;2023-01-29T18:06:06;17.52;;;13.55;;
58760;SDS011;44529;47.464;19.014;2023-01-29T18:09:12;18.10;;;13.27;;
58760;SDS011;44529;47.464;19.014;2023-01-29T18:12:16;16.98;;;13.82;;
58760;SDS011;44529;47.464;19.014;2023-01-29T18:15:18;21.08;;;14.82;;
58760;SDS011;44529;47.464;19.014;2023-01-29T18:18:22;18.70;;;13.80;;
58760;SDS011;44529;47.464;19.014;2023-01-29T18:21:25;18.50;;;14.55;;
58760;SDS011;44529;47.464;19.014;2023-01-29T18:24:28;17.55;;;14.73;;
58760;SDS011;44529;47.464;19.014;2023-01-29T18:27:31;17.23;;;14.23;;
58760;SDS011;44529;47.464;19.014;2023-01-29T18:30:33;18.65;;;13.85;;
58760;SDS011;44529;47.464;19.014;2023-01-29T18:33:36;21.92;;;15.13;;
58760;SDS011;44529;47.464;19.014;2023-01-29T18:36:38;18.25;;;14.63;;
58760;SDS011;44529;47.464;19.014;2023-01-29T18:39:42;20.15;;;15.50;;
58760;SDS011;44529;47.464;19.014;2023-01-29T18:42:45;18.37;;;14.77;;
58760;SDS011;44529;47.464;19.014;2023-01-29T18:45:48;17.87;;;14.52;;
58760;SDS011;44529;47.464;19.014;2023-01-29T18:48:50;19.15;;;14.75;;
58760;SDS011;44529;47.464;19.014;2023-01-29T18:51:53;18.15;;;14.65;;
58760;SDS011;44529;47.464;19.014;2023-01-29T18:54:56;18.48;;;14.70;;
58760;SDS011;44529;47.464;19.014;2023-01-29T18:57:58;18.50;;;13.82;;
58760;SDS011;44529;47.464;19.014;2023-01-29T19:01:21;18.62;;;14.50;;
58760;SDS011;44529;47.464;19.014;2023-01-29T19:04:24;17.37;;;14.05;;
58760;SDS011;44529;47.464;19.014;2023-01-29T19:07:28;19.23;;;14.73;;
58760;SDS011;44529;47.464;19.014;2023-01-29T19:10:31;21.10;;;15.00;;
58760;SDS011;44529;47.464;19.014;2023-01-29T19:13:34;19.45;;;15.13;;
58760;SDS011;44529;47.464;19.014;2023-01-29T19:16:37;17.92;;;14.98;;
58760;SDS011;44529;47.464;19.014;2023-01-29T19:19:40;19.08;;;14.52;;
58760;SDS011;44529;47.464;19.014;2023-01-29T19:22:42;19.02;;;14.40;;
58760;SDS011;44529;47.464;19.014;2023-01-29T19:25:45;18.55;;;14.32;;
58760;SDS011;44529;47.464;19.014;2023-01-29T19:28:48;19.17;;;16.15;;
58760;SDS011;44529;47.464;19.014;2023-01-29T19:31:52;18.85;;;14.93;;
58760;SDS011;44529;47.464;19.014;2023-01-29T19:34:54;21.90;;;16.90;;
58760;SDS011;44529;47.464;19.014;2023-01-29T19:37:59;21.20;;;15.68;;
58760;SDS011;44529;47.464;19.014;2023-01-29T19:41:02;21.70;;;15.77;;
58760;SDS011;44529;47.464;19.014;2023-01-29T19:44:06;18.20;;;14.80;;
58760;SDS011;44529;47.464;19.014;2023-01-29T19:47:09;18.70;;;14.40;;
58760;SDS011;44529;47.464;19.014;2023-01-29T19:50:11;16.20;;;12.85;;
58760;SDS011;44529;47.464;19.014;2023-01-29T19:53:14;16.10;;;13.38;;
58760;SDS011;44529;47.464;19.014;2023-01-29T19:56:16;17.60;;;13.90;;
58760;SDS011;44529;47.464;19.014;2023-01-29T19:59:20;16.25;;;12.88;;
58760;SDS011;44529;47.464;19.014;2023-01-29T20:02:24;15.77;;;12.43;;
58760;SDS011;44529;47.464;19.014;2023-01-29T20:05:26;16.08;;;13.23;;
58760;SDS011;44529;47.464;19.014;2023-01-29T20:08:29;14.20;;;11.85;;
58760;SDS011;44529;47.464;19.014;2023-01-29T20:11:32;15.50;;;12.18;;
58760;SDS011;44529;47.464;19.014;2023-01-29T20:14:34;15.70;;;12.40;;
58760;SDS011;44529;47.464;19.014;2023-01-29T20:17:37;16.02;;;13.00;;
58760;SDS011;44529;47.464;19.014;2023-01-29T20:20:40;16.27;;;13.15;;
58760;SDS011;44529;47.464;19.014;2023-01-29T20:23:44;17.98;;;12.90;;
58760;SDS011;44529;47.464;19.014;2023-01-29T20:26:47;15.15;;;12.63;;